Clements, Maryland
Current Conditions -  °F | °C
As of 2:14 AM on Saturday 20 Dec 2014 (Local Time) from K2W6 Reporting Station
Clear Clear  
Wind Chill: 27°   Ceiling: Unl
Heat Index: 27°   Visibility: 10mi
Dew Point: 21°   Wind: 0mph
Humidity: 80%   Direction: NA
Pressure: 30.27"   Gusts: NA
Location:  38.33°N, 76.73°W
Report Text: K2W6 200714Z AUTO 00000KT 10SM CLR M03/M06 A3027 RMK AO1
Loading
Personal Weather Stations






























Interactive Weather Map New forecast layout! Learn more

10-Day Weather Forecast

Advertisements
Track Severe Weather on mobile